sensor_id;sensor_type;location;lat;lon;timestamp;P1;durP1;ratioP1;P2;durP2;ratioP2
37309;SDS011;23195;47.744;7.358;2022-12-05T00:01:32;48.67;;;19.60;;
37309;SDS011;23195;47.744;7.358;2022-12-05T00:04:01;47.60;;;19.73;;
37309;SDS011;23195;47.744;7.358;2022-12-05T00:06:31;45.37;;;20.97;;
37309;SDS011;23195;47.744;7.358;2022-12-05T00:08:58;48.43;;;20.83;;
37309;SDS011;23195;47.744;7.358;2022-12-05T00:11:29;52.00;;;21.23;;
37309;SDS011;23195;47.744;7.358;2022-12-05T00:13:56;49.27;;;20.63;;
37309;SDS011;23195;47.744;7.358;2022-12-05T00:16:24;41.83;;;18.60;;
37309;SDS011;23195;47.744;7.358;2022-12-05T00:18:52;50.80;;;19.63;;
37309;SDS011;23195;47.744;7.358;2022-12-05T00:21:28;53.67;;;21.10;;
37309;SDS011;23195;47.744;7.358;2022-12-05T00:23:56;50.90;;;21.23;;
37309;SDS011;23195;47.744;7.358;2022-12-05T00:26:22;44.73;;;18.70;;
37309;SDS011;23195;47.744;7.358;2022-12-05T00:28:48;48.37;;;20.47;;
37309;SDS011;23195;47.744;7.358;2022-12-05T00:31:21;48.37;;;20.50;;
37309;SDS011;23195;47.744;7.358;2022-12-05T00:33:51;46.97;;;19.67;;
37309;SDS011;23195;47.744;7.358;2022-12-05T00:36:21;42.87;;;18.63;;
37309;SDS011;23195;47.744;7.358;2022-12-05T00:38:48;44.93;;;18.67;;
37309;SDS011;23195;47.744;7.358;2022-12-05T00:41:16;40.70;;;17.10;;
37309;SDS011;23195;47.744;7.358;2022-12-05T00:43:46;41.60;;;18.13;;
37309;SDS011;23195;47.744;7.358;2022-12-05T00:46:13;39.47;;;17.53;;
37309;SDS011;23195;47.744;7.358;2022-12-05T00:48:41;41.50;;;18.27;;
37309;SDS011;23195;47.744;7.358;2022-12-05T00:51:09;39.17;;;17.93;;
37309;SDS011;23195;47.744;7.358;2022-12-05T00:53:36;40.30;;;17.50;;
37309;SDS011;23195;47.744;7.358;2022-12-05T00:56:04;41.03;;;17.30;;
37309;SDS011;23195;47.744;7.358;2022-12-05T00:58:40;44.23;;;19.10;;
37309;SDS011;23195;47.744;7.358;2022-12-05T01:01:12;40.73;;;16.97;;
37309;SDS011;23195;47.744;7.358;2022-12-05T01:03:40;39.73;;;17.13;;
37309;SDS011;23195;47.744;7.358;2022-12-05T01:06:07;40.43;;;18.30;;
37309;SDS011;23195;47.744;7.358;2022-12-05T01:08:33;39.93;;;16.77;;
37309;SDS011;23195;47.744;7.358;2022-12-05T01:11:00;40.83;;;16.83;;
37309;SDS011;23195;47.744;7.358;2022-12-05T01:13:29;36.90;;;17.63;;
37309;SDS011;23195;47.744;7.358;2022-12-05T01:15:55;41.93;;;18.63;;
37309;SDS011;23195;47.744;7.358;2022-12-05T01:18:21;39.17;;;18.07;;
37309;SDS011;23195;47.744;7.358;2022-12-05T01:20:48;43.13;;;17.97;;
37309;SDS011;23195;47.744;7.358;2022-12-05T01:23:14;41.33;;;17.90;;
37309;SDS011;23195;47.744;7.358;2022-12-05T01:25:45;42.87;;;17.67;;
37309;SDS011;23195;47.744;7.358;2022-12-05T01:28:13;38.27;;;16.70;;
37309;SDS011;23195;47.744;7.358;2022-12-05T01:30:47;37.87;;;16.97;;
37309;SDS011;23195;47.744;7.358;2022-12-05T01:33:14;35.40;;;16.80;;
37309;SDS011;23195;47.744;7.358;2022-12-05T01:35:41;37.47;;;15.93;;
37309;SDS011;23195;47.744;7.358;2022-12-05T01:38:07;36.83;;;16.97;;
37309;SDS011;23195;47.744;7.358;2022-12-05T01:40:34;36.00;;;16.67;;
37309;SDS011;23195;47.744;7.358;2022-12-05T01:43:01;38.60;;;16.97;;
37309;SDS011;23195;47.744;7.358;2022-12-05T01:45:36;35.40;;;15.73;;
37309;SDS011;23195;47.744;7.358;2022-12-05T01:48:05;33.67;;;16.23;;
37309;SDS011;23195;47.744;7.358;2022-12-05T01:50:36;37.70;;;16.63;;
37309;SDS011;23195;47.744;7.358;2022-12-05T01:53:02;33.93;;;16.43;;
37309;SDS011;23195;47.744;7.358;2022-12-05T01:55:29;30.43;;;15.87;;
37309;SDS011;23195;47.744;7.358;2022-12-05T01:57:55;36.50;;;16.57;;
37309;SDS011;23195;47.744;7.358;2022-12-05T02:00:21;36.97;;;16.20;;
37309;SDS011;23195;47.744;7.358;2022-12-05T02:02:50;36.23;;;16.13;;
37309;SDS011;23195;47.744;7.358;2022-12-05T02:05:21;35.30;;;15.90;;
37309;SDS011;23195;47.744;7.358;2022-12-05T02:07:50;31.57;;;15.13;;
37309;SDS011;23195;47.744;7.358;2022-12-05T02:10:16;30.53;;;15.00;;
37309;SDS011;23195;47.744;7.358;2022-12-05T02:12:43;34.73;;;16.00;;
37309;SDS011;23195;47.744;7.358;2022-12-05T02:33:34;32.93;;;15.70;;
37309;SDS011;23195;47.744;7.358;2022-12-05T02:36:24;28.73;;;14.50;;
37309;SDS011;23195;47.744;7.358;2022-12-05T02:41:39;30.70;;;15.03;;
37309;SDS011;23195;47.744;7.358;2022-12-05T02:44:13;34.03;;;14.67;;
37309;SDS011;23195;47.744;7.358;2022-12-05T02:46:45;30.97;;;15.00;;
37309;SDS011;23195;47.744;7.358;2022-12-05T02:49:18;30.17;;;14.47;;
37309;SDS011;23195;47.744;7.358;2022-12-05T02:51:49;29.30;;;14.33;;
37309;SDS011;23195;47.744;7.358;2022-12-05T02:54:20;31.43;;;14.77;;
37309;SDS011;23195;47.744;7.358;2022-12-05T02:56:49;29.70;;;15.07;;
37309;SDS011;23195;47.744;7.358;2022-12-05T02:59:17;30.63;;;15.07;;
37309;SDS011;23195;47.744;7.358;2022-12-05T03:01:44;33.13;;;14.77;;
37309;SDS011;23195;47.744;7.358;2022-12-05T03:04:11;30.23;;;14.07;;
37309;SDS011;23195;47.744;7.358;2022-12-05T03:06:44;32.20;;;15.33;;
37309;SDS011;23195;47.744;7.358;2022-12-05T03:09:50;29.83;;;14.93;;
37309;SDS011;23195;47.744;7.358;2022-12-05T03:12:29;28.57;;;15.07;;
37309;SDS011;23195;47.744;7.358;2022-12-05T03:17:34;29.73;;;14.77;;
37309;SDS011;23195;47.744;7.358;2022-12-05T03:20:08;31.33;;;15.47;;
37309;SDS011;23195;47.744;7.358;2022-12-05T03:23:30;30.20;;;14.67;;
37309;SDS011;23195;47.744;7.358;2022-12-05T03:25:43;32.07;;;15.23;;
37309;SDS011;23195;47.744;7.358;2022-12-05T03:28:29;29.97;;;15.13;;
37309;SDS011;23195;47.744;7.358;2022-12-05T03:31:11;26.43;;;14.33;;
37309;SDS011;23195;47.744;7.358;2022-12-05T03:33:43;32.10;;;15.20;;
37309;SDS011;23195;47.744;7.358;2022-12-05T03:36:21;31.87;;;16.00;;
37309;SDS011;23195;47.744;7.358;2022-12-05T03:41:29;27.90;;;14.87;;
37309;SDS011;23195;47.744;7.358;2022-12-05T03:44:16;30.03;;;15.67;;
37309;SDS011;23195;47.744;7.358;2022-12-05T03:46:55;31.97;;;16.40;;
37309;SDS011;23195;47.744;7.358;2022-12-05T03:49:26;31.97;;;16.50;;
37309;SDS011;23195;47.744;7.358;2022-12-05T03:52:15;33.20;;;16.07;;
37309;SDS011;23195;47.744;7.358;2022-12-05T03:54:56;35.07;;;16.47;;
37309;SDS011;23195;47.744;7.358;2022-12-05T03:57:36;31.90;;;15.30;;
37309;SDS011;23195;47.744;7.358;2022-12-05T04:00:13;29.33;;;14.83;;
37309;SDS011;23195;47.744;7.358;2022-12-05T04:05:20;32.33;;;16.03;;
37309;SDS011;23195;47.744;7.358;2022-12-05T04:07:48;31.00;;;15.63;;
37309;SDS011;23195;47.744;7.358;2022-12-05T04:10:21;34.00;;;16.10;;
37309;SDS011;23195;47.744;7.358;2022-12-05T04:12:50;36.90;;;16.50;;
37309;SDS011;23195;47.744;7.358;2022-12-05T04:15:23;34.50;;;16.70;;
37309;SDS011;23195;47.744;7.358;2022-12-05T04:18:12;36.87;;;17.37;;
37309;SDS011;23195;47.744;7.358;2022-12-05T04:20:41;35.87;;;16.20;;
37309;SDS011;23195;47.744;7.358;2022-12-05T04:23:27;36.20;;;17.27;;
37309;SDS011;23195;47.744;7.358;2022-12-05T04:26:01;34.13;;;16.53;;
37309;SDS011;23195;47.744;7.358;2022-12-05T04:28:36;36.57;;;17.37;;
37309;SDS011;23195;47.744;7.358;2022-12-05T04:31:31;36.30;;;18.13;;
37309;SDS011;23195;47.744;7.358;2022-12-05T04:34:04;39.67;;;17.53;;
37309;SDS011;23195;47.744;7.358;2022-12-05T04:36:32;38.23;;;18.03;;
37309;SDS011;23195;47.744;7.358;2022-12-05T04:39:10;36.83;;;18.00;;
37309;SDS011;23195;47.744;7.358;2022-12-05T04:41:43;39.07;;;17.63;;
37309;SDS011;23195;47.744;7.358;2022-12-05T04:44:15;39.83;;;18.17;;
37309;SDS011;23195;47.744;7.358;2022-12-05T04:46:44;40.10;;;18.50;;
37309;SDS011;23195;47.744;7.358;2022-12-05T04:49:14;45.50;;;19.47;;
37309;SDS011;23195;47.744;7.358;2022-12-05T04:51:43;38.30;;;18.60;;
37309;SDS011;23195;47.744;7.358;2022-12-05T04:54:17;43.63;;;18.80;;
37309;SDS011;23195;47.744;7.358;2022-12-05T04:56:47;39.13;;;19.33;;
37309;SDS011;23195;47.744;7.358;2022-12-05T04:59:17;41.50;;;18.43;;
37309;SDS011;23195;47.744;7.358;2022-12-05T05:01:50;39.33;;;18.30;;
37309;SDS011;23195;47.744;7.358;2022-12-05T05:07:08;37.37;;;17.17;;
37309;SDS011;23195;47.744;7.358;2022-12-05T05:09:35;36.10;;;17.03;;
37309;SDS011;23195;47.744;7.358;2022-12-05T05:12:02;39.70;;;18.37;;
37309;SDS011;23195;47.744;7.358;2022-12-05T05:14:28;45.80;;;18.90;;
37309;SDS011;23195;47.744;7.358;2022-12-05T05:16:54;41.60;;;18.27;;
37309;SDS011;23195;47.744;7.358;2022-12-05T05:19:21;39.07;;;17.53;;
37309;SDS011;23195;47.744;7.358;2022-12-05T05:21:47;34.30;;;16.00;;
37309;SDS011;23195;47.744;7.358;2022-12-05T05:24:14;33.90;;;16.83;;
37309;SDS011;23195;47.744;7.358;2022-12-05T05:26:41;32.00;;;14.67;;
37309;SDS011;23195;47.744;7.358;2022-12-05T05:29:08;31.50;;;14.80;;
37309;SDS011;23195;47.744;7.358;2022-12-05T05:31:35;35.23;;;15.00;;
37309;SDS011;23195;47.744;7.358;2022-12-05T05:34:02;31.13;;;15.23;;
37309;SDS011;23195;47.744;7.358;2022-12-05T05:36:29;29.13;;;14.57;;
37309;SDS011;23195;47.744;7.358;2022-12-05T05:38:56;32.87;;;14.67;;
37309;SDS011;23195;47.744;7.358;2022-12-05T05:41:27;32.03;;;15.50;;
37309;SDS011;23195;47.744;7.358;2022-12-05T05:43:54;33.97;;;15.77;;
37309;SDS011;23195;47.744;7.358;2022-12-05T05:46:22;32.30;;;15.40;;
37309;SDS011;23195;47.744;7.358;2022-12-05T05:48:49;34.37;;;15.77;;
37309;SDS011;23195;47.744;7.358;2022-12-05T05:51:16;30.47;;;14.63;;
37309;SDS011;23195;47.744;7.358;2022-12-05T05:53:43;31.27;;;14.33;;
37309;SDS011;23195;47.744;7.358;2022-12-05T05:56:10;31.27;;;14.43;;
37309;SDS011;23195;47.744;7.358;2022-12-05T05:58:37;32.80;;;15.07;;
37309;SDS011;23195;47.744;7.358;2022-12-05T06:01:04;29.80;;;13.73;;
37309;SDS011;23195;47.744;7.358;2022-12-05T06:03:33;26.67;;;12.47;;
37309;SDS011;23195;47.744;7.358;2022-12-05T06:06:00;28.73;;;13.07;;
37309;SDS011;23195;47.744;7.358;2022-12-05T06:08:31;28.97;;;13.00;;
37309;SDS011;23195;47.744;7.358;2022-12-05T06:10:58;26.10;;;11.97;;
37309;SDS011;23195;47.744;7.358;2022-12-05T06:13:24;21.63;;;10.87;;
37309;SDS011;23195;47.744;7.358;2022-12-05T06:15:50;21.50;;;10.40;;
37309;SDS011;23195;47.744;7.358;2022-12-05T06:18:16;19.67;;;10.20;;
37309;SDS011;23195;47.744;7.358;2022-12-05T06:20:50;19.03;;;9.23;;
37309;SDS011;23195;47.744;7.358;2022-12-05T06:23:16;20.77;;;9.97;;
37309;SDS011;23195;47.744;7.358;2022-12-05T06:25:46;19.67;;;9.80;;
37309;SDS011;23195;47.744;7.358;2022-12-05T06:28:16;18.10;;;9.17;;
37309;SDS011;23195;47.744;7.358;2022-12-05T06:30:42;19.87;;;9.97;;
37309;SDS011;23195;47.744;7.358;2022-12-05T06:33:08;22.23;;;10.03;;
37309;SDS011;23195;47.744;7.358;2022-12-05T06:35:35;20.80;;;10.40;;
37309;SDS011;23195;47.744;7.358;2022-12-05T06:38:01;21.40;;;10.27;;
37309;SDS011;23195;47.744;7.358;2022-12-05T06:40:27;19.57;;;9.37;;
37309;SDS011;23195;47.744;7.358;2022-12-05T06:42:53;15.87;;;8.60;;
37309;SDS011;23195;47.744;7.358;2022-12-05T06:45:19;20.27;;;9.00;;
37309;SDS011;23195;47.744;7.358;2022-12-05T06:47:46;14.80;;;7.90;;
37309;SDS011;23195;47.744;7.358;2022-12-05T06:50:11;15.97;;;8.80;;
37309;SDS011;23195;47.744;7.358;2022-12-05T06:52:40;18.63;;;9.33;;
37309;SDS011;23195;47.744;7.358;2022-12-05T06:55:09;19.63;;;10.43;;
37309;SDS011;23195;47.744;7.358;2022-12-05T06:57:35;17.20;;;9.17;;
37309;SDS011;23195;47.744;7.358;2022-12-05T07:00:01;19.07;;;9.30;;
37309;SDS011;23195;47.744;7.358;2022-12-05T07:02:54;16.67;;;9.27;;
37309;SDS011;23195;47.744;7.358;2022-12-05T07:05:20;18.27;;;9.63;;
37309;SDS011;23195;47.744;7.358;2022-12-05T07:07:48;24.70;;;12.77;;
37309;SDS011;23195;47.744;7.358;2022-12-05T07:10:14;19.17;;;10.77;;
37309;SDS011;23195;47.744;7.358;2022-12-05T07:12:40;21.50;;;10.67;;
37309;SDS011;23195;47.744;7.358;2022-12-05T07:15:09;20.33;;;10.47;;
37309;SDS011;23195;47.744;7.358;2022-12-05T07:17:35;16.97;;;9.10;;
37309;SDS011;23195;47.744;7.358;2022-12-05T07:20:11;19.20;;;9.77;;
37309;SDS011;23195;47.744;7.358;2022-12-05T07:23:13;16.70;;;9.43;;
37309;SDS011;23195;47.744;7.358;2022-12-05T07:25:42;15.83;;;9.50;;
37309;SDS011;23195;47.744;7.358;2022-12-05T07:28:08;16.53;;;9.57;;
37309;SDS011;23195;47.744;7.358;2022-12-05T07:30:33;19.70;;;11.20;;
37309;SDS011;23195;47.744;7.358;2022-12-05T07:32:59;20.57;;;11.13;;
37309;SDS011;23195;47.744;7.358;2022-12-05T07:35:25;17.40;;;10.37;;
37309;SDS011;23195;47.744;7.358;2022-12-05T07:37:51;15.67;;;9.37;;
37309;SDS011;23195;47.744;7.358;2022-12-05T07:40:17;14.57;;;8.07;;
37309;SDS011;23195;47.744;7.358;2022-12-05T07:42:43;14.43;;;8.60;;
37309;SDS011;23195;47.744;7.358;2022-12-05T07:45:11;16.30;;;9.07;;
37309;SDS011;23195;47.744;7.358;2022-12-05T07:47:37;15.23;;;8.70;;
37309;SDS011;23195;47.744;7.358;2022-12-05T07:50:03;14.10;;;8.73;;
37309;SDS011;23195;47.744;7.358;2022-12-05T07:52:29;15.23;;;8.20;;
37309;SDS011;23195;47.744;7.358;2022-12-05T07:54:55;14.00;;;8.17;;
37309;SDS011;23195;47.744;7.358;2022-12-05T07:57:22;16.57;;;8.23;;
37309;SDS011;23195;47.744;7.358;2022-12-05T07:59:47;15.03;;;7.80;;
37309;SDS011;23195;47.744;7.358;2022-12-05T08:02:13;14.43;;;8.17;;
37309;SDS011;23195;47.744;7.358;2022-12-05T08:04:42;16.23;;;8.70;;
37309;SDS011;23195;47.744;7.358;2022-12-05T08:07:09;16.80;;;8.90;;
37309;SDS011;23195;47.744;7.358;2022-12-05T08:09:35;17.90;;;9.47;;
37309;SDS011;23195;47.744;7.358;2022-12-05T08:12:01;15.97;;;8.87;;
37309;SDS011;23195;47.744;7.358;2022-12-05T08:14:27;16.37;;;9.17;;
37309;SDS011;23195;47.744;7.358;2022-12-05T08:16:53;16.70;;;8.10;;
37309;SDS011;23195;47.744;7.358;2022-12-05T08:19:21;14.17;;;7.90;;
37309;SDS011;23195;47.744;7.358;2022-12-05T08:21:47;15.63;;;9.10;;
37309;SDS011;23195;47.744;7.358;2022-12-05T08:24:13;14.70;;;8.17;;
37309;SDS011;23195;47.744;7.358;2022-12-05T08:26:39;15.13;;;8.73;;
37309;SDS011;23195;47.744;7.358;2022-12-05T08:29:09;17.33;;;9.10;;
37309;SDS011;23195;47.744;7.358;2022-12-05T08:31:40;18.33;;;9.10;;
37309;SDS011;23195;47.744;7.358;2022-12-05T08:34:13;14.10;;;8.03;;
37309;SDS011;23195;47.744;7.358;2022-12-05T08:36:39;13.00;;;8.23;;
37309;SDS011;23195;47.744;7.358;2022-12-05T08:39:06;14.53;;;8.27;;
37309;SDS011;23195;47.744;7.358;2022-12-05T08:41:33;12.43;;;7.83;;
37309;SDS011;23195;47.744;7.358;2022-12-05T08:44:00;12.20;;;7.70;;
37309;SDS011;23195;47.744;7.358;2022-12-05T08:46:28;13.40;;;7.43;;
37309;SDS011;23195;47.744;7.358;2022-12-05T08:48:54;13.03;;;7.43;;
37309;SDS011;23195;47.744;7.358;2022-12-05T08:51:20;11.00;;;6.77;;
37309;SDS011;23195;47.744;7.358;2022-12-05T08:53:46;12.40;;;7.40;;
37309;SDS011;23195;47.744;7.358;2022-12-05T08:56:11;10.43;;;6.60;;
37309;SDS011;23195;47.744;7.358;2022-12-05T08:58:37;12.70;;;7.60;;
37309;SDS011;23195;47.744;7.358;2022-12-05T09:03:30;13.73;;;6.90;;
37309;SDS011;23195;47.744;7.358;2022-12-05T09:06:13;14.03;;;7.40;;
37309;SDS011;23195;47.744;7.358;2022-12-05T09:08:46;11.20;;;6.20;;
37309;SDS011;23195;47.744;7.358;2022-12-05T09:11:15;11.00;;;6.50;;
37309;SDS011;23195;47.744;7.358;2022-12-05T09:13:43;11.27;;;6.10;;
37309;SDS011;23195;47.744;7.358;2022-12-05T09:16:12;9.53;;;6.20;;
37309;SDS011;23195;47.744;7.358;2022-12-05T09:18:40;9.70;;;5.80;;
37309;SDS011;23195;47.744;7.358;2022-12-05T09:21:07;12.07;;;6.17;;
37309;SDS011;23195;47.744;7.358;2022-12-05T09:23:36;13.20;;;6.57;;
37309;SDS011;23195;47.744;7.358;2022-12-05T09:26:03;14.80;;;7.60;;
37309;SDS011;23195;47.744;7.358;2022-12-05T09:28:31;15.27;;;8.37;;
37309;SDS011;23195;47.744;7.358;2022-12-05T09:30:58;15.50;;;7.97;;
37309;SDS011;23195;47.744;7.358;2022-12-05T09:33:33;14.07;;;7.97;;
37309;SDS011;23195;47.744;7.358;2022-12-05T09:36:08;13.93;;;8.37;;
37309;SDS011;23195;47.744;7.358;2022-12-05T09:38:40;14.00;;;8.07;;
37309;SDS011;23195;47.744;7.358;2022-12-05T09:47:12;24.40;;;10.07;;
37309;SDS011;23195;47.744;7.358;2022-12-05T09:50:11;24.43;;;10.33;;
37309;SDS011;23195;47.744;7.358;2022-12-05T09:52:41;21.07;;;9.93;;
37309;SDS011;23195;47.744;7.358;2022-12-05T09:55:15;24.33;;;11.07;;
37309;SDS011;23195;47.744;7.358;2022-12-05T09:57:50;18.53;;;9.33;;
37309;SDS011;23195;47.744;7.358;2022-12-05T10:00:20;16.30;;;8.87;;
37309;SDS011;23195;47.744;7.358;2022-12-05T10:03:02;14.33;;;9.10;;
37309;SDS011;23195;47.744;7.358;2022-12-05T10:08:33;13.60;;;7.93;;
37309;SDS011;23195;47.744;7.358;2022-12-05T10:11:09;14.80;;;8.40;;
37309;SDS011;23195;47.744;7.358;2022-12-05T10:13:53;13.50;;;8.03;;
37309;SDS011;23195;47.744;7.358;2022-12-05T10:16:51;15.23;;;8.10;;
37309;SDS011;23195;47.744;7.358;2022-12-05T10:19:26;13.93;;;7.37;;
37309;SDS011;23195;47.744;7.358;2022-12-05T10:22:10;11.43;;;7.27;;
37309;SDS011;23195;47.744;7.358;2022-12-05T10:24:50;12.57;;;7.23;;
37309;SDS011;23195;47.744;7.358;2022-12-05T10:27:41;12.53;;;7.57;;
37309;SDS011;23195;47.744;7.358;2022-12-05T10:30:19;11.17;;;6.57;;
37309;SDS011;23195;47.744;7.358;2022-12-05T10:32:54;11.77;;;6.93;;
37309;SDS011;23195;47.744;7.358;2022-12-05T10:38:15;10.70;;;6.57;;
37309;SDS011;23195;47.744;7.358;2022-12-05T10:40:51;10.57;;;6.57;;
37309;SDS011;23195;47.744;7.358;2022-12-05T10:43:25;11.60;;;7.53;;
37309;SDS011;23195;47.744;7.358;2022-12-05T10:45:53;11.13;;;6.70;;
37309;SDS011;23195;47.744;7.358;2022-12-05T10:48:20;10.80;;;6.97;;
37309;SDS011;23195;47.744;7.358;2022-12-05T10:50:50;12.17;;;6.90;;
37309;SDS011;23195;47.744;7.358;2022-12-05T10:53:20;10.47;;;6.90;;
37309;SDS011;23195;47.744;7.358;2022-12-05T10:55:51;12.60;;;7.43;;
37309;SDS011;23195;47.744;7.358;2022-12-05T10:58:25;14.27;;;8.00;;
37309;SDS011;23195;47.744;7.358;2022-12-05T11:00:53;12.83;;;7.63;;
37309;SDS011;23195;47.744;7.358;2022-12-05T11:03:35;12.43;;;7.97;;
37309;SDS011;23195;47.744;7.358;2022-12-05T11:08:52;14.17;;;8.27;;
37309;SDS011;23195;47.744;7.358;2022-12-05T11:11:21;14.97;;;8.53;;
37309;SDS011;23195;47.744;7.358;2022-12-05T11:14:35;12.50;;;7.90;;
37309;SDS011;23195;47.744;7.358;2022-12-05T11:16:53;12.73;;;7.63;;
37309;SDS011;23195;47.744;7.358;2022-12-05T11:19:35;13.43;;;7.93;;
37309;SDS011;23195;47.744;7.358;2022-12-05T11:22:04;12.67;;;8.17;;
37309;SDS011;23195;47.744;7.358;2022-12-05T11:24:34;11.80;;;7.73;;
37309;SDS011;23195;47.744;7.358;2022-12-05T11:29:41;11.03;;;7.30;;
37309;SDS011;23195;47.744;7.358;2022-12-05T11:32:19;12.50;;;7.20;;
37309;SDS011;23195;47.744;7.358;2022-12-05T11:34:55;14.93;;;7.97;;
37309;SDS011;23195;47.744;7.358;2022-12-05T11:37:23;11.73;;;7.27;;
37309;SDS011;23195;47.744;7.358;2022-12-05T11:39:52;8.00;;;5.53;;
37309;SDS011;23195;47.744;7.358;2022-12-05T11:42:27;8.80;;;5.67;;
37309;SDS011;23195;47.744;7.358;2022-12-05T11:47:48;7.90;;;5.23;;
37309;SDS011;23195;47.744;7.358;2022-12-05T11:58:46;8.17;;;5.13;;
37309;SDS011;23195;47.744;7.358;2022-12-05T12:13:01;8.77;;;5.53;;
37309;SDS011;23195;47.744;7.358;2022-12-05T12:26:24;6.70;;;4.60;;
37309;SDS011;23195;47.744;7.358;2022-12-05T12:34:49;10.13;;;5.90;;
37309;SDS011;23195;47.744;7.358;2022-12-05T12:37:43;12.20;;;7.27;;
37309;SDS011;23195;47.744;7.358;2022-12-05T12:40:13;9.57;;;6.20;;
37309;SDS011;23195;47.744;7.358;2022-12-05T12:50:49;6.37;;;5.07;;
37309;SDS011;23195;47.744;7.358;2022-12-05T13:01:32;8.07;;;5.37;;
37309;SDS011;23195;47.744;7.358;2022-12-05T13:04:07;9.23;;;6.30;;
37309;SDS011;23195;47.744;7.358;2022-12-05T13:09:29;7.63;;;5.27;;
37309;SDS011;23195;47.744;7.358;2022-12-05T13:12:07;7.10;;;5.20;;
37309;SDS011;23195;47.744;7.358;2022-12-05T13:14:37;8.37;;;5.40;;
37309;SDS011;23195;47.744;7.358;2022-12-05T13:17:06;6.60;;;4.83;;
37309;SDS011;23195;47.744;7.358;2022-12-05T13:19:41;7.33;;;4.97;;
37309;SDS011;23195;47.744;7.358;2022-12-05T13:22:15;7.80;;;4.90;;
37309;SDS011;23195;47.744;7.358;2022-12-05T13:24:43;6.87;;;4.87;;
37309;SDS011;23195;47.744;7.358;2022-12-05T13:27:19;6.37;;;4.50;;
37309;SDS011;23195;47.744;7.358;2022-12-05T13:32:25;5.83;;;4.30;;
37309;SDS011;23195;47.744;7.358;2022-12-05T13:34:52;9.00;;;5.17;;
37309;SDS011;23195;47.744;7.358;2022-12-05T13:37:23;5.83;;;4.40;;
37309;SDS011;23195;47.744;7.358;2022-12-05T13:43:11;5.40;;;4.30;;
37309;SDS011;23195;47.744;7.358;2022-12-05T13:46:01;6.00;;;4.33;;
37309;SDS011;23195;47.744;7.358;2022-12-05T13:48:32;6.80;;;4.20;;
37309;SDS011;23195;47.744;7.358;2022-12-05T13:51:21;5.60;;;4.10;;
37309;SDS011;23195;47.744;7.358;2022-12-05T13:54:02;5.70;;;3.97;;
37309;SDS011;23195;47.744;7.358;2022-12-05T13:56:48;4.47;;;3.40;;
37309;SDS011;23195;47.744;7.358;2022-12-05T14:03:12;4.13;;;3.43;;
37309;SDS011;23195;47.744;7.358;2022-12-05T14:07:44;5.87;;;4.43;;
37309;SDS011;23195;47.744;7.358;2022-12-05T14:10:22;5.20;;;3.90;;
37309;SDS011;23195;47.744;7.358;2022-12-05T14:13:01;7.43;;;4.07;;
37309;SDS011;23195;47.744;7.358;2022-12-05T14:15:50;6.10;;;4.20;;
37309;SDS011;23195;47.744;7.358;2022-12-05T14:18:22;6.43;;;4.20;;
37309;SDS011;23195;47.744;7.358;2022-12-05T14:20:58;6.37;;;4.73;;
37309;SDS011;23195;47.744;7.358;2022-12-05T14:34:32;6.17;;;4.37;;
37309;SDS011;23195;47.744;7.358;2022-12-05T14:37:17;5.50;;;3.93;;
37309;SDS011;23195;47.744;7.358;2022-12-05T14:39:55;7.43;;;4.33;;
37309;SDS011;23195;47.744;7.358;2022-12-05T14:47:51;5.37;;;3.83;;
37309;SDS011;23195;47.744;7.358;2022-12-05T14:50:32;6.20;;;3.77;;
37309;SDS011;23195;47.744;7.358;2022-12-05T14:55:48;4.73;;;3.73;;
37309;SDS011;23195;47.744;7.358;2022-12-05T14:58:31;6.13;;;4.10;;
37309;SDS011;23195;47.744;7.358;2022-12-05T15:01:23;4.17;;;3.33;;
37309;SDS011;23195;47.744;7.358;2022-12-05T15:06:28;5.20;;;4.07;;
37309;SDS011;23195;47.744;7.358;2022-12-05T15:08:55;6.43;;;4.30;;
37309;SDS011;23195;47.744;7.358;2022-12-05T15:11:23;7.27;;;4.50;;
37309;SDS011;23195;47.744;7.358;2022-12-05T15:16:42;7.13;;;4.70;;
37309;SDS011;23195;47.744;7.358;2022-12-05T15:19:23;6.40;;;4.73;;
37309;SDS011;23195;47.744;7.358;2022-12-05T15:22:05;7.30;;;4.87;;
37309;SDS011;23195;47.744;7.358;2022-12-05T15:24:40;6.90;;;4.97;;
37309;SDS011;23195;47.744;7.358;2022-12-05T15:27:08;8.30;;;5.27;;
37309;SDS011;23195;47.744;7.358;2022-12-05T15:29:36;6.27;;;5.00;;
37309;SDS011;23195;47.744;7.358;2022-12-05T15:34:35;7.60;;;5.60;;
37309;SDS011;23195;47.744;7.358;2022-12-05T15:37:22;10.73;;;5.80;;
37309;SDS011;23195;47.744;7.358;2022-12-05T15:42:56;13.43;;;7.63;;
37309;SDS011;23195;47.744;7.358;2022-12-05T15:45:18;12.07;;;7.17;;
37309;SDS011;23195;47.744;7.358;2022-12-05T15:47:50;12.70;;;7.40;;
37309;SDS011;23195;47.744;7.358;2022-12-05T15:50:42;14.03;;;7.63;;
37309;SDS011;23195;47.744;7.358;2022-12-05T15:55:50;11.10;;;6.37;;
37309;SDS011;23195;47.744;7.358;2022-12-05T15:58:23;9.30;;;6.30;;
37309;SDS011;23195;47.744;7.358;2022-12-05T16:00:54;9.97;;;7.23;;
37309;SDS011;23195;47.744;7.358;2022-12-05T16:03:30;10.70;;;5.97;;
37309;SDS011;23195;47.744;7.358;2022-12-05T16:06:12;9.93;;;6.33;;
37309;SDS011;23195;47.744;7.358;2022-12-05T16:08:47;12.57;;;7.57;;
37309;SDS011;23195;47.744;7.358;2022-12-05T16:11:18;15.40;;;9.03;;
37309;SDS011;23195;47.744;7.358;2022-12-05T16:13:55;16.43;;;9.47;;
37309;SDS011;23195;47.744;7.358;2022-12-05T16:16:26;16.97;;;9.97;;
37309;SDS011;23195;47.744;7.358;2022-12-05T16:18:58;16.17;;;10.03;;
37309;SDS011;23195;47.744;7.358;2022-12-05T16:24:26;13.47;;;8.33;;
37309;SDS011;23195;47.744;7.358;2022-12-05T16:26:53;13.80;;;7.80;;
37309;SDS011;23195;47.744;7.358;2022-12-05T16:29:32;14.63;;;8.37;;
37309;SDS011;23195;47.744;7.358;2022-12-05T16:32:01;12.00;;;8.63;;
37309;SDS011;23195;47.744;7.358;2022-12-05T16:34:31;13.50;;;9.07;;
37309;SDS011;23195;47.744;7.358;2022-12-05T16:36:58;15.00;;;9.67;;
37309;SDS011;23195;47.744;7.358;2022-12-05T16:39:24;13.50;;;9.20;;
37309;SDS011;23195;47.744;7.358;2022-12-05T16:41:55;15.83;;;9.93;;
37309;SDS011;23195;47.744;7.358;2022-12-05T16:46:54;13.67;;;9.03;;
37309;SDS011;23195;47.744;7.358;2022-12-05T16:51:59;17.03;;;9.87;;
37309;SDS011;23195;47.744;7.358;2022-12-05T16:54:31;16.53;;;9.43;;
37309;SDS011;23195;47.744;7.358;2022-12-05T16:56:57;17.03;;;10.00;;
37309;SDS011;23195;47.744;7.358;2022-12-05T16:59:34;18.90;;;11.07;;
37309;SDS011;23195;47.744;7.358;2022-12-05T17:02:02;18.27;;;10.43;;
37309;SDS011;23195;47.744;7.358;2022-12-05T17:04:31;16.87;;;10.13;;
37309;SDS011;23195;47.744;7.358;2022-12-05T17:06:59;20.37;;;11.83;;
37309;SDS011;23195;47.744;7.358;2022-12-05T17:09:25;27.73;;;14.87;;
37309;SDS011;23195;47.744;7.358;2022-12-05T17:11:57;26.13;;;13.90;;
37309;SDS011;23195;47.744;7.358;2022-12-05T17:14:28;22.40;;;13.07;;
37309;SDS011;23195;47.744;7.358;2022-12-05T17:16:56;17.63;;;11.27;;
37309;SDS011;23195;47.744;7.358;2022-12-05T17:19:22;18.93;;;11.00;;
37309;SDS011;23195;47.744;7.358;2022-12-05T17:21:48;23.10;;;11.60;;
37309;SDS011;23195;47.744;7.358;2022-12-05T17:24:17;25.83;;;11.80;;
37309;SDS011;23195;47.744;7.358;2022-12-05T17:26:44;18.27;;;10.03;;
37309;SDS011;23195;47.744;7.358;2022-12-05T17:29:13;16.27;;;9.83;;
37309;SDS011;23195;47.744;7.358;2022-12-05T17:31:39;19.20;;;9.90;;
37309;SDS011;23195;47.744;7.358;2022-12-05T17:34:09;18.97;;;10.27;;
37309;SDS011;23195;47.744;7.358;2022-12-05T17:36:39;16.37;;;9.87;;
37309;SDS011;23195;47.744;7.358;2022-12-05T17:39:05;16.90;;;10.03;;